createdAt,value
2023-03-14T00:01:18.411Z,73.31
2023-03-14T00:03:45.812Z,72.45
2023-03-14T00:06:14.248Z,72.91
2023-03-14T00:08:42.953Z,73.38
2023-03-14T00:11:12.879Z,74.06
2023-03-14T00:13:40.451Z,73.64
2023-03-14T00:16:13.090Z,73.39
2023-03-14T00:18:41.066Z,73.82
2023-03-14T00:21:10.436Z,73.98
2023-03-14T00:23:39.533Z,73.69
2023-03-14T00:26:12.581Z,73.68
2023-03-14T00:28:41.276Z,73.87
2023-03-14T00:31:12.746Z,73.75
2023-03-14T00:33:43.051Z,73.70
2023-03-14T00:36:13.159Z,74.12
2023-03-14T00:38:42.804Z,73.86
2023-03-14T00:41:12.666Z,73.54
2023-03-14T00:43:40.139Z,73.29
2023-03-14T00:46:08.462Z,73.40
2023-03-14T00:48:36.208Z,73.27
2023-03-14T00:51:05.946Z,73.67
2023-03-14T00:53:37.338Z,73.41
2023-03-14T00:56:07.465Z,73.23
2023-03-14T00:58:35.184Z,72.93
2023-03-14T01:01:10.022Z,72.12
2023-03-14T01:03:37.855Z,72.15
2023-03-14T01:06:26.535Z,71.95
2023-03-14T01:08:55.452Z,72.26
2023-03-14T01:11:26.175Z,72.67
2023-03-14T01:13:54.164Z,72.70
2023-03-14T01:16:24.477Z,72.48
2023-03-14T01:18:52.197Z,72.55
2023-03-14T01:21:25.418Z,72.52
2023-03-14T01:23:55.412Z,72.21
2023-03-14T01:26:25.298Z,71.40
2023-03-14T01:28:55.225Z,70.63
2023-03-14T01:31:23.779Z,71.21
2023-03-14T01:33:51.889Z,70.61
2023-03-14T01:36:20.087Z,70.06
2023-03-14T01:38:47.951Z,70.14
2023-03-14T01:41:20.931Z,70.18
2023-03-14T01:43:49.291Z,69.92
2023-03-14T01:46:21.256Z,69.66
2023-03-14T01:49:11.982Z,69.53
2023-03-14T01:51:56.179Z,69.34
2023-03-14T01:54:26.600Z,69.14
2023-03-14T01:57:13.841Z,68.71
2023-03-14T01:59:46.614Z,68.99
2023-03-14T02:02:16.531Z,69.04
2023-03-14T02:04:44.893Z,69.35
2023-03-14T02:07:19.827Z,69.55
2023-03-14T02:10:00.618Z,69.42
2023-03-14T02:12:33.418Z,69.44
2023-03-14T02:15:19.661Z,69.55
2023-03-14T02:18:10.113Z,69.58
2023-03-14T02:21:10.350Z,69.41
2023-03-14T02:23:56.648Z,69.23
2023-03-14T02:26:32.880Z,69.16
2023-03-14T02:29:00.513Z,69.10
2023-03-14T02:31:28.450Z,69.44
2023-03-14T02:33:57.302Z,69.56
2023-03-14T02:36:25.236Z,69.15
2023-03-14T02:39:04.355Z,68.83
2023-03-14T02:41:32.479Z,68.49
2023-03-14T02:44:03.862Z,68.16
2023-03-14T02:46:32.506Z,68.25
2023-03-14T02:49:06.118Z,67.82
2023-03-14T02:51:33.985Z,67.50
2023-03-14T02:54:02.124Z,67.01
2023-03-14T02:56:29.571Z,66.67
2023-03-14T02:58:58.813Z,66.56
2023-03-14T03:01:49.752Z,66.83
2023-03-14T03:04:17.256Z,66.69
2023-03-14T03:06:47.195Z,66.68
2023-03-14T03:09:16.009Z,66.28
2023-03-14T03:11:43.476Z,66.59
2023-03-14T03:14:16.598Z,66.44
2023-03-14T03:16:44.087Z,66.32
2023-03-14T03:19:11.495Z,66.47
2023-03-14T03:21:38.923Z,65.71
2023-03-14T03:24:07.706Z,65.33
2023-03-14T03:26:36.978Z,65.29
2023-03-14T03:29:06.725Z,65.17
2023-03-14T03:31:34.190Z,65.36
2023-03-14T03:34:01.645Z,65.60
2023-03-14T03:36:30.125Z,65.30
2023-03-14T03:39:00.698Z,65.51
2023-03-14T03:41:28.128Z,65.40
2023-03-14T03:43:55.724Z,65.69
2023-03-14T03:46:23.898Z,65.40
2023-03-14T03:48:56.737Z,65.40
2023-03-14T03:51:24.183Z,65.57
2023-03-14T03:53:51.775Z,65.50
2023-03-14T03:56:25.433Z,65.72
2023-03-14T03:58:52.784Z,65.80
2023-03-14T04:01:20.361Z,65.37
2023-03-14T04:03:51.035Z,66.04
2023-03-14T04:06:20.029Z,66.16
2023-03-14T04:08:49.824Z,66.23
2023-03-14T04:11:32.114Z,65.57
2023-03-14T04:14:13.265Z,65.89
2023-03-14T04:16:40.799Z,65.68
2023-03-14T04:19:15.604Z,65.68
2023-03-14T04:21:46.243Z,65.99
2023-03-14T04:24:14.409Z,66.77
2023-03-14T04:26:43.834Z,66.94
2023-03-14T04:29:13.393Z,67.34
2023-03-14T04:31:42.208Z,67.41
2023-03-14T04:34:10.278Z,67.33
2023-03-14T04:36:43.538Z,67.30
2023-03-14T04:39:16.062Z,67.66
2023-03-14T04:41:51.279Z,67.47
2023-03-14T04:44:19.420Z,67.25
2023-03-14T04:46:47.189Z,67.47
2023-03-14T04:49:14.841Z,67.14
2023-03-14T04:51:42.642Z,66.77
2023-03-14T04:54:10.524Z,67.25
2023-03-14T04:56:38.301Z,67.41
2023-03-14T04:59:05.999Z,66.99
2023-03-14T05:01:36.725Z,66.80
2023-03-14T05:04:21.663Z,67.39
2023-03-14T05:06:57.327Z,67.07
2023-03-14T05:09:47.680Z,67.36
2023-03-14T05:12:26.280Z,67.83
2023-03-14T05:15:09.149Z,67.94
2023-03-14T05:17:59.397Z,67.87
2023-03-14T05:20:45.335Z,67.74
2023-03-14T05:23:48.109Z,67.78
2023-03-14T05:26:32.408Z,68.18
2023-03-14T05:29:07.019Z,68.25
2023-03-14T05:31:52.967Z,68.02
2023-03-14T05:34:38.870Z,67.74
2023-03-14T05:37:29.283Z,67.92
2023-03-14T05:40:17.818Z,68.26
2023-03-14T05:43:09.138Z,69.04
2023-03-14T05:45:36.653Z,69.22
2023-03-14T05:48:36.472Z,69.90
2023-03-14T05:51:09.472Z,69.99
2023-03-14T05:53:45.276Z,71.36
2023-03-14T05:56:35.740Z,74.04
2023-03-14T05:59:17.649Z,76.58
2023-03-14T06:01:56.024Z,77.48
2023-03-14T06:04:27.066Z,81.96
2023-03-14T06:06:58.024Z,85.16
2023-03-14T06:09:25.843Z,90.23
2023-03-14T06:11:56.507Z,87.63
2023-03-14T06:14:24.107Z,88.26
2023-03-14T06:16:53.703Z,89.26
2023-03-14T06:19:22.762Z,91.31
2023-03-14T06:21:50.237Z,92.05
2023-03-14T06:24:17.673Z,93.33
2023-03-14T06:26:48.280Z,93.26
2023-03-14T06:29:15.822Z,93.41
2023-03-14T06:31:43.512Z,92.89
2023-03-14T06:34:11.651Z,94.20
2023-03-14T06:36:40.512Z,94.50
2023-03-14T06:39:09.600Z,94.66
2023-03-14T06:41:40.986Z,93.44
2023-03-14T06:44:10.115Z,93.07
2023-03-14T06:46:38.577Z,95.75
2023-03-14T06:49:05.971Z,96.04
2023-03-14T06:51:35.122Z,95.78
2023-03-14T06:54:05.289Z,96.99
2023-03-14T06:56:33.030Z,97.44
2023-03-14T06:59:00.713Z,99.06
2023-03-14T07:01:31.809Z,98.54
2023-03-14T07:04:06.266Z,97.88
2023-03-14T07:06:35.302Z,98.79
2023-03-14T07:09:47.098Z,98.65
2023-03-14T07:11:56.635Z,99.83
2023-03-14T07:14:24.784Z,97.53
2023-03-14T07:16:52.262Z,96.50
2023-03-14T07:19:20.626Z,96.03
2023-03-14T07:21:48.106Z,97.03
2023-03-14T07:24:17.815Z,94.62
2023-03-14T07:26:45.213Z,94.82
2023-03-14T07:29:12.569Z,97.03
2023-03-14T07:31:41.659Z,96.15
2023-03-14T07:34:09.055Z,95.32
2023-03-14T07:36:40.138Z,96.15
2023-03-14T07:39:32.336Z,95.75
2023-03-14T07:42:04.545Z,95.20
2023-03-14T07:44:47.943Z,94.00
2023-03-14T07:47:15.311Z,93.90
2023-03-14T07:49:42.602Z,94.63
2023-03-14T07:52:10.001Z,94.59
2023-03-14T07:54:37.403Z,95.92
2023-03-14T07:57:04.987Z,94.55
2023-03-14T07:59:32.334Z,94.91
2023-03-14T08:01:59.877Z,96.77
2023-03-14T08:04:28.356Z,98.23
2023-03-14T08:06:55.766Z,98.86
2023-03-14T08:09:23.043Z,100.00
2023-03-14T08:11:50.302Z,100.00
2023-03-14T08:14:17.643Z,100.00
2023-03-14T08:16:44.938Z,100.00
2023-03-14T08:19:12.250Z,100.00
2023-03-14T08:21:39.601Z,100.00
2023-03-14T08:24:07.234Z,100.00
2023-03-14T08:26:34.686Z,100.00
2023-03-14T08:29:02.056Z,100.00
2023-03-14T08:31:29.452Z,100.00
2023-03-14T08:33:59.799Z,100.00
2023-03-14T08:36:27.207Z,100.00
2023-03-14T08:38:55.131Z,100.00
2023-03-14T08:41:22.530Z,100.00
2023-03-14T08:43:49.954Z,100.00
2023-03-14T08:46:17.534Z,100.00
2023-03-14T08:48:44.903Z,100.00
2023-03-14T08:51:15.012Z,100.00
2023-03-14T08:53:42.846Z,100.00
2023-03-14T08:56:11.317Z,100.00
2023-03-14T08:58:39.072Z,100.00
2023-03-14T09:01:07.160Z,100.00
2023-03-14T09:03:34.719Z,100.00
2023-03-14T09:06:06.621Z,100.00
2023-03-14T09:08:35.000Z,100.00
2023-03-14T09:11:03.384Z,100.00
2023-03-14T09:13:30.675Z,100.00
2023-03-14T09:15:58.576Z,100.00
2023-03-14T09:18:25.929Z,100.00
2023-03-14T09:20:53.222Z,100.00
2023-03-14T09:23:20.522Z,100.00
2023-03-14T09:25:47.830Z,100.00
2023-03-14T09:28:15.154Z,100.00
2023-03-14T09:30:42.906Z,100.00
2023-03-14T09:33:10.216Z,100.00
2023-03-14T09:35:37.551Z,100.00
2023-03-14T09:38:06.332Z,100.00
2023-03-14T09:40:36.643Z,100.00
2023-03-14T09:43:04.448Z,100.00
2023-03-14T09:45:37.975Z,100.00
2023-03-14T09:48:06.454Z,100.00
2023-03-14T09:50:42.979Z,100.00
2023-03-14T09:53:19.057Z,100.00
2023-03-14T09:55:49.572Z,100.00
2023-03-14T09:58:25.439Z,100.00
2023-03-14T10:01:03.593Z,100.00
2023-03-14T10:03:35.509Z,100.00
2023-03-14T10:06:05.484Z,100.00
2023-03-14T10:08:32.923Z,100.00
2023-03-14T10:11:00.762Z,100.00
2023-03-14T10:13:30.262Z,100.00
2023-03-14T10:16:01.803Z,100.00
2023-03-14T10:18:31.554Z,100.00
2023-03-14T10:21:08.027Z,100.00
2023-03-14T10:23:36.441Z,100.00
2023-03-14T10:26:13.803Z,100.00
2023-03-14T10:29:09.275Z,100.00
2023-03-14T10:31:53.544Z,100.00
2023-03-14T10:34:30.741Z,100.00
2023-03-14T10:37:06.485Z,100.00
2023-03-14T10:39:43.250Z,100.00
2023-03-14T10:42:20.181Z,100.00
2023-03-14T10:44:52.004Z,100.00
2023-03-14T10:47:24.482Z,100.00
2023-03-14T10:49:52.973Z,100.00
2023-03-14T10:52:31.572Z,100.00
2023-03-14T10:55:13.915Z,100.00
2023-03-14T10:57:42.886Z,100.00
2023-03-14T11:00:34.205Z,100.00
2023-03-14T11:03:15.425Z,100.00
2023-03-14T11:05:42.975Z,100.00
2023-03-14T11:08:26.096Z,100.00
2023-03-14T11:11:08.543Z,100.00
2023-03-14T11:14:03.920Z,100.00
2023-03-14T11:16:52.796Z,100.00
2023-03-14T11:19:28.596Z,100.00
2023-03-14T11:22:08.191Z,100.00
2023-03-14T11:24:57.797Z,100.00
2023-03-14T11:27:44.615Z,100.00
2023-03-14T11:30:20.230Z,100.00
2023-03-14T11:32:52.905Z,100.00
2023-03-14T11:35:54.528Z,100.00
2023-03-14T11:38:25.074Z,100.00
2023-03-14T11:40:55.458Z,100.00
2023-03-14T11:43:31.805Z,100.00
2023-03-14T11:46:11.878Z,100.00
2023-03-14T11:48:50.005Z,100.00
2023-03-14T11:51:27.092Z,100.00
2023-03-14T11:54:23.541Z,100.00
2023-03-14T11:56:56.127Z,100.00
2023-03-14T11:59:34.264Z,100.00
2023-03-14T12:02:15.700Z,100.00
2023-03-14T12:05:18.295Z,100.00
2023-03-14T12:08:10.671Z,100.00
2023-03-14T12:10:45.523Z,100.00
2023-03-14T12:13:15.467Z,100.00
2023-03-14T12:15:55.547Z,100.00
2023-03-14T12:18:32.419Z,100.00
2023-03-14T12:21:03.785Z,100.00
2023-03-14T12:23:42.057Z,100.00
2023-03-14T12:26:17.015Z,100.00
2023-03-14T12:28:51.563Z,100.00
2023-03-14T12:32:06.918Z,100.00
2023-03-14T12:34:42.211Z,100.00
2023-03-14T12:37:10.492Z,100.00
2023-03-14T12:40:07.458Z,100.00
2023-03-14T12:42:55.163Z,100.00
2023-03-14T12:45:36.612Z,100.00
2023-03-14T12:48:23.169Z,100.00
2023-03-14T12:51:03.844Z,100.00
2023-03-14T12:54:00.726Z,100.00
2023-03-14T12:56:41.399Z,100.00
2023-03-14T12:59:20.386Z,100.00
2023-03-14T13:01:57.173Z,100.00
2023-03-14T13:05:01.748Z,100.00
2023-03-14T13:07:55.300Z,100.00
2023-03-14T13:10:26.794Z,100.00
2023-03-14T13:13:16.652Z,100.00
2023-03-14T13:15:46.744Z,100.00
2023-03-14T13:18:27.907Z,100.00
2023-03-14T13:21:21.070Z,100.00
2023-03-14T13:24:07.022Z,100.00
2023-03-14T13:26:43.396Z,100.00
2023-03-14T13:29:17.982Z,100.00
2023-03-14T13:31:51.416Z,100.00
2023-03-14T13:34:19.277Z,100.00
2023-03-14T13:36:50.090Z,100.00
2023-03-14T13:39:26.576Z,100.00
2023-03-14T13:41:55.211Z,100.00
2023-03-14T13:44:27.636Z,100.00
2023-03-14T13:47:00.305Z,100.00
2023-03-14T13:49:30.148Z,100.00
2023-03-14T13:51:57.778Z,100.00
2023-03-14T13:54:27.795Z,100.00
2023-03-14T13:57:02.741Z,100.00
2023-03-14T13:59:33.054Z,100.00
2023-03-14T14:02:21.378Z,100.00
2023-03-14T14:04:48.880Z,100.00
2023-03-14T14:07:19.557Z,100.00
2023-03-14T14:09:49.941Z,100.00
2023-03-14T14:12:28.391Z,100.00
2023-03-14T14:15:14.822Z,100.00
2023-03-14T14:17:47.127Z,100.00
2023-03-14T14:20:22.782Z,100.00
2023-03-14T14:22:51.624Z,100.00
2023-03-14T14:25:19.506Z,100.00
2023-03-14T14:27:51.554Z,100.00
2023-03-14T14:30:18.901Z,100.00
2023-03-14T14:32:49.070Z,100.00
2023-03-14T14:35:26.968Z,100.00
2023-03-14T14:37:54.597Z,100.00
2023-03-14T14:40:25.839Z,100.00
2023-03-14T14:42:53.896Z,100.00
2023-03-14T14:45:23.958Z,100.00
2023-03-14T14:48:06.492Z,100.00
2023-03-14T14:50:52.307Z,100.00
2023-03-14T14:53:28.528Z,100.00
2023-03-14T14:56:04.777Z,100.00
2023-03-14T14:58:40.741Z,100.00
2023-03-14T15:01:24.355Z,100.00
2023-03-14T15:03:53.907Z,100.00
2023-03-14T15:06:25.327Z,100.00
2023-03-14T15:08:54.268Z,100.00
2023-03-14T15:11:26.476Z,100.00
2023-03-14T15:13:54.334Z,100.00
2023-03-14T15:16:24.841Z,100.00
2023-03-14T15:18:57.003Z,100.00
2023-03-14T15:21:26.531Z,99.12
2023-03-14T15:23:54.330Z,100.00
2023-03-14T15:26:25.187Z,98.34
2023-03-14T15:28:53.116Z,96.16
2023-03-14T15:31:22.433Z,96.82
2023-03-14T15:33:50.580Z,98.28
2023-03-14T15:36:28.520Z,97.73
2023-03-14T15:38:56.684Z,97.35
2023-03-14T15:41:24.620Z,96.66
2023-03-14T15:43:52.480Z,96.24
2023-03-14T15:46:20.017Z,96.12
2023-03-14T15:48:47.720Z,97.12
2023-03-14T15:51:15.549Z,96.70
2023-03-14T15:53:44.769Z,94.55
2023-03-14T15:56:18.657Z,95.16
2023-03-14T15:58:49.063Z,96.67
2023-03-14T16:01:17.618Z,95.25
2023-03-14T16:03:50.220Z,96.37
2023-03-14T16:06:17.727Z,95.26
2023-03-14T16:08:45.764Z,95.96
2023-03-14T16:11:15.489Z,95.93
2023-03-14T16:13:43.007Z,97.06
2023-03-14T16:16:13.199Z,95.44
2023-03-14T16:18:41.146Z,95.46
2023-03-14T16:21:17.388Z,94.65
2023-03-14T16:23:45.874Z,95.43
2023-03-14T16:26:16.102Z,95.74
2023-03-14T16:28:44.811Z,96.31
2023-03-14T16:31:18.459Z,95.89
2023-03-14T16:33:45.912Z,94.83
2023-03-14T16:36:14.351Z,97.38
2023-03-14T16:38:43.734Z,97.19
2023-03-14T16:41:15.638Z,97.69
2023-03-14T16:43:44.739Z,98.35
2023-03-14T16:46:16.798Z,98.20
2023-03-14T16:48:45.068Z,94.94
2023-03-14T16:51:12.959Z,96.23
2023-03-14T16:53:40.302Z,97.61
2023-03-14T16:56:08.734Z,97.50
2023-03-14T16:58:36.207Z,97.01
2023-03-14T17:01:11.791Z,96.95
2023-03-14T17:03:44.885Z,97.15
2023-03-14T17:06:14.301Z,96.02
2023-03-14T17:08:42.092Z,95.82
2023-03-14T17:11:10.037Z,98.71
2023-03-14T17:13:38.274Z,98.27
2023-03-14T17:16:05.962Z,97.08
2023-03-14T17:18:33.604Z,98.18
2023-03-14T17:21:01.859Z,97.67
2023-03-14T17:23:31.479Z,96.37
2023-03-14T17:25:59.339Z,95.94
2023-03-14T17:28:27.488Z,96.71
2023-03-14T17:31:17.110Z,96.85
2023-03-14T17:33:45.301Z,94.48
2023-03-14T17:36:13.873Z,94.43
2023-03-14T17:38:41.876Z,94.72
2023-03-14T17:41:14.284Z,94.88
2023-03-14T17:43:42.810Z,95.64
2023-03-14T17:46:14.979Z,96.71
2023-03-14T17:48:44.814Z,99.23
2023-03-14T17:51:13.597Z,99.23
2023-03-14T17:53:41.071Z,98.09
2023-03-14T17:56:09.584Z,96.26
2023-03-14T17:58:38.044Z,96.16
2023-03-14T18:01:11.335Z,97.40
2023-03-14T18:03:39.026Z,97.72
2023-03-14T18:06:08.615Z,98.36
2023-03-14T18:08:37.433Z,96.46
2023-03-14T18:11:06.804Z,95.71
2023-03-14T18:13:36.803Z,94.75
2023-03-14T18:16:07.192Z,94.51
2023-03-14T18:18:34.834Z,93.51
2023-03-14T18:21:02.259Z,93.64
2023-03-14T18:23:29.660Z,94.76
2023-03-14T18:25:58.876Z,95.73
2023-03-14T18:28:27.186Z,95.44
2023-03-14T18:31:01.444Z,95.86
2023-03-14T18:33:29.128Z,97.32
2023-03-14T18:35:56.545Z,97.72
2023-03-14T18:38:23.849Z,97.42
2023-03-14T18:40:52.532Z,98.86
2023-03-14T18:43:20.618Z,98.60
2023-03-14T18:45:48.001Z,98.81
2023-03-14T18:48:15.852Z,99.36
2023-03-14T18:50:43.494Z,99.35
2023-03-14T18:53:10.898Z,98.46
2023-03-14T18:55:38.316Z,98.95
2023-03-14T18:58:05.695Z,99.64
2023-03-14T19:00:33.537Z,99.79
2023-03-14T19:03:02.225Z,99.91
2023-03-14T19:05:30.528Z,100.00
2023-03-14T19:07:58.274Z,99.08
2023-03-14T19:10:26.517Z,100.00
2023-03-14T19:12:53.914Z,100.00
2023-03-14T19:15:21.272Z,100.00
2023-03-14T19:17:48.784Z,100.00
2023-03-14T19:20:16.326Z,100.00
2023-03-14T19:22:43.832Z,100.00
2023-03-14T19:25:11.202Z,100.00
2023-03-14T19:27:39.013Z,100.00
2023-03-14T19:30:07.147Z,100.00
2023-03-14T19:32:34.640Z,100.00
2023-03-14T19:35:02.034Z,100.00
2023-03-14T19:37:29.376Z,100.00
2023-03-14T19:40:22.018Z,100.00
2023-03-14T19:42:49.319Z,100.00
2023-03-14T19:45:23.938Z,100.00
2023-03-14T19:47:51.456Z,100.00
2023-03-14T19:50:18.981Z,100.00
2023-03-14T19:52:47.656Z,100.00
2023-03-14T19:55:15.110Z,100.00
2023-03-14T19:57:42.518Z,100.00
2023-03-14T20:00:16.941Z,100.00
2023-03-14T20:02:45.563Z,100.00
2023-03-14T20:05:14.541Z,100.00
2023-03-14T20:07:42.188Z,100.00
2023-03-14T20:10:17.826Z,100.00
2023-03-14T20:12:46.181Z,100.00
2023-03-14T20:15:21.805Z,100.00
2023-03-14T20:17:51.585Z,100.00
2023-03-14T20:20:20.693Z,100.00
2023-03-14T20:22:51.035Z,100.00
2023-03-14T20:25:19.102Z,100.00
2023-03-14T20:27:47.244Z,100.00
2023-03-14T20:30:19.535Z,100.00
2023-03-14T20:32:48.781Z,100.00
2023-03-14T20:35:24.062Z,100.00
2023-03-14T20:37:53.747Z,100.00
2023-03-14T20:40:28.803Z,100.00
2023-03-14T20:42:57.577Z,100.00
2023-03-14T20:45:25.214Z,100.00
2023-03-14T20:47:53.974Z,100.00
2023-03-14T20:50:21.600Z,100.00
2023-03-14T20:52:49.801Z,100.00
2023-03-14T20:55:17.670Z,100.00
2023-03-14T20:57:45.327Z,100.00
2023-03-14T21:00:15.656Z,100.00
2023-03-14T21:05:29.287Z,100.00
2023-03-14T21:07:57.759Z,100.00
2023-03-14T21:10:25.318Z,100.00
2023-03-14T21:12:53.252Z,100.00
2023-03-14T21:15:22.775Z,100.00
2023-03-14T21:17:54.540Z,100.00
2023-03-14T21:20:26.528Z,100.00
2023-03-14T21:22:53.943Z,100.00
2023-03-14T21:25:21.634Z,100.00
2023-03-14T21:27:50.096Z,100.00
2023-03-14T21:30:17.968Z,100.00
2023-03-14T21:32:45.305Z,100.00
2023-03-14T21:35:12.677Z,100.00
2023-03-14T21:37:40.287Z,100.00
2023-03-14T21:40:09.096Z,100.00
2023-03-14T21:42:36.517Z,100.00
2023-03-14T21:45:04.920Z,100.00
2023-03-14T21:47:32.992Z,100.00
2023-03-14T21:50:01.702Z,100.00
2023-03-14T21:52:29.080Z,100.00
2023-03-14T21:54:56.357Z,100.00
2023-03-14T21:57:29.690Z,100.00
2023-03-14T21:59:57.208Z,100.00
2023-03-14T22:02:24.700Z,100.00
2023-03-14T22:04:52.176Z,100.00
2023-03-14T22:07:20.444Z,100.00
2023-03-14T22:09:48.609Z,100.00
2023-03-14T22:12:19.235Z,100.00
2023-03-14T22:14:47.894Z,100.00
2023-03-14T22:17:16.031Z,100.00
2023-03-14T22:19:43.340Z,100.00
2023-03-14T22:22:10.868Z,100.00
2023-03-14T22:24:38.469Z,100.00
2023-03-14T22:27:05.788Z,100.00
2023-03-14T22:29:37.427Z,100.00
2023-03-14T22:32:05.446Z,100.00
2023-03-14T22:34:33.675Z,100.00
2023-03-14T22:37:03.060Z,100.00
2023-03-14T22:39:30.536Z,100.00
2023-03-14T22:41:59.115Z,100.00
2023-03-14T22:44:27.227Z,100.00
2023-03-14T22:46:54.578Z,100.00
2023-03-14T22:49:22.168Z,100.00
2023-03-14T22:51:49.559Z,100.00
2023-03-14T22:54:16.863Z,100.00
2023-03-14T22:56:44.202Z,100.00
2023-03-14T22:59:13.520Z,100.00
2023-03-14T23:01:42.074Z,100.00
2023-03-14T23:04:09.410Z,100.00
2023-03-14T23:06:36.724Z,100.00
2023-03-14T23:09:04.394Z,100.00
2023-03-14T23:11:31.747Z,100.00
2023-03-14T23:13:59.011Z,100.00
2023-03-14T23:16:37.680Z,100.00
2023-03-14T23:19:09.657Z,100.00
2023-03-14T23:21:37.087Z,100.00
2023-03-14T23:24:06.082Z,100.00
2023-03-14T23:26:35.532Z,100.00
2023-03-14T23:29:07.382Z,100.00
2023-03-14T23:31:34.948Z,100.00
2023-03-14T23:34:02.287Z,100.00
2023-03-14T23:36:29.840Z,100.00
2023-03-14T23:38:57.426Z,100.00
2023-03-14T23:41:24.792Z,100.00
2023-03-14T23:43:52.064Z,100.00
2023-03-14T23:46:19.395Z,100.00
2023-03-14T23:48:47.068Z,100.00
2023-03-14T23:51:15.947Z,100.00
2023-03-14T23:53:44.453Z,100.00
2023-03-14T23:56:13.569Z,100.00
2023-03-14T23:58:41.356Z,100.00
